sensor_id;sensor_type;location;lat;lon;timestamp;P1;durP1;ratioP1;P2;durP2;ratioP2
25913;SDS011;13718;50.922;5.346;2022-08-06T00:02:00;6.78;;;2.72;;
25913;SDS011;13718;50.922;5.346;2022-08-06T00:04:26;8.63;;;2.25;;
25913;SDS011;13718;50.922;5.346;2022-08-06T00:06:52;7.78;;;1.80;;
25913;SDS011;13718;50.922;5.346;2022-08-06T00:09:17;6.50;;;1.60;;
25913;SDS011;13718;50.922;5.346;2022-08-06T00:11:43;7.65;;;1.20;;
25913;SDS011;13718;50.922;5.346;2022-08-06T00:14:09;7.78;;;1.63;;
25913;SDS011;13718;50.922;5.346;2022-08-06T00:16:34;7.85;;;2.03;;
25913;SDS011;13718;50.922;5.346;2022-08-06T00:19:00;5.20;;;1.60;;
25913;SDS011;13718;50.922;5.346;2022-08-06T00:21:26;8.95;;;2.03;;
25913;SDS011;13718;50.922;5.346;2022-08-06T00:23:51;6.97;;;1.90;;
25913;SDS011;13718;50.922;5.346;2022-08-06T00:26:17;6.40;;;2.10;;
25913;SDS011;13718;50.922;5.346;2022-08-06T00:28:43;6.50;;;1.70;;
25913;SDS011;13718;50.922;5.346;2022-08-06T00:31:09;4.40;;;2.10;;
25913;SDS011;13718;50.922;5.346;2022-08-06T00:33:34;8.73;;;2.00;;
25913;SDS011;13718;50.922;5.346;2022-08-06T00:36:00;4.57;;;1.80;;
25913;SDS011;13718;50.922;5.346;2022-08-06T00:38:26;6.60;;;2.00;;
25913;SDS011;13718;50.922;5.346;2022-08-06T00:40:52;10.50;;;2.25;;
25913;SDS011;13718;50.922;5.346;2022-08-06T00:43:18;7.68;;;1.88;;
25913;SDS011;13718;50.922;5.346;2022-08-06T00:45:44;7.13;;;1.95;;
25913;SDS011;13718;50.922;5.346;2022-08-06T00:48:10;7.18;;;2.20;;
25913;SDS011;13718;50.922;5.346;2022-08-06T00:50:36;5.55;;;1.73;;
25913;SDS011;13718;50.922;5.346;2022-08-06T00:53:02;4.13;;;1.85;;
25913;SDS011;13718;50.922;5.346;2022-08-06T00:55:29;7.75;;;1.98;;
25913;SDS011;13718;50.922;5.346;2022-08-06T00:57:55;10.23;;;2.13;;
25913;SDS011;13718;50.922;5.346;2022-08-06T01:00:20;7.20;;;1.85;;
25913;SDS011;13718;50.922;5.346;2022-08-06T01:02:46;9.98;;;2.00;;
25913;SDS011;13718;50.922;5.346;2022-08-06T01:05:12;8.93;;;2.40;;
25913;SDS011;13718;50.922;5.346;2022-08-06T01:07:38;10.95;;;2.40;;
25913;SDS011;13718;50.922;5.346;2022-08-06T01:10:03;9.75;;;2.30;;
25913;SDS011;13718;50.922;5.346;2022-08-06T01:12:29;5.10;;;2.10;;
25913;SDS011;13718;50.922;5.346;2022-08-06T01:14:55;9.15;;;3.05;;
25913;SDS011;13718;50.922;5.346;2022-08-06T01:17:26;13.45;;;2.50;;
25913;SDS011;13718;50.922;5.346;2022-08-06T01:20:02;9.68;;;2.50;;
25913;SDS011;13718;50.922;5.346;2022-08-06T01:22:44;7.65;;;2.65;;
25913;SDS011;13718;50.922;5.346;2022-08-06T01:25:36;6.88;;;2.30;;
25913;SDS011;13718;50.922;5.346;2022-08-06T01:28:40;8.85;;;2.70;;
25913;SDS011;13718;50.922;5.346;2022-08-06T01:31:13;7.43;;;2.55;;
25913;SDS011;13718;50.922;5.346;2022-08-06T01:33:46;6.70;;;2.47;;
25913;SDS011;13718;50.922;5.346;2022-08-06T01:36:21;10.80;;;3.15;;
25913;SDS011;13718;50.922;5.346;2022-08-06T01:38:52;6.70;;;2.65;;
25913;SDS011;13718;50.922;5.346;2022-08-06T01:41:21;8.38;;;2.80;;
25913;SDS011;13718;50.922;5.346;2022-08-06T01:44:05;6.45;;;2.58;;
25913;SDS011;13718;50.922;5.346;2022-08-06T01:46:36;7.82;;;2.60;;
25913;SDS011;13718;50.922;5.346;2022-08-06T01:49:03;7.78;;;2.78;;
25913;SDS011;13718;50.922;5.346;2022-08-06T01:51:31;7.03;;;2.63;;
25913;SDS011;13718;50.922;5.346;2022-08-06T01:53:59;12.25;;;2.70;;
25913;SDS011;13718;50.922;5.346;2022-08-06T01:56:27;6.38;;;2.67;;
25913;SDS011;13718;50.922;5.346;2022-08-06T01:58:56;9.98;;;2.47;;
25913;SDS011;13718;50.922;5.346;2022-08-06T02:01:25;7.68;;;2.35;;
25913;SDS011;13718;50.922;5.346;2022-08-06T02:03:54;9.57;;;2.88;;
25913;SDS011;13718;50.922;5.346;2022-08-06T02:06:21;7.03;;;2.95;;
25913;SDS011;13718;50.922;5.346;2022-08-06T02:08:51;9.50;;;2.60;;
25913;SDS011;13718;50.922;5.346;2022-08-06T02:11:17;7.88;;;3.00;;
25913;SDS011;13718;50.922;5.346;2022-08-06T02:13:43;9.80;;;2.85;;
25913;SDS011;13718;50.922;5.346;2022-08-06T02:16:11;8.20;;;3.28;;
25913;SDS011;13718;50.922;5.346;2022-08-06T02:18:39;8.40;;;3.22;;
25913;SDS011;13718;50.922;5.346;2022-08-06T02:21:08;8.07;;;3.10;;
25913;SDS011;13718;50.922;5.346;2022-08-06T02:23:37;7.63;;;3.20;;
25913;SDS011;13718;50.922;5.346;2022-08-06T02:26:04;8.30;;;3.53;;
25913;SDS011;13718;50.922;5.346;2022-08-06T02:28:31;10.35;;;3.60;;
25913;SDS011;13718;50.922;5.346;2022-08-06T02:30:59;11.07;;;3.97;;
25913;SDS011;13718;50.922;5.346;2022-08-06T02:33:25;8.35;;;3.50;;
25913;SDS011;13718;50.922;5.346;2022-08-06T02:35:53;8.60;;;3.90;;
25913;SDS011;13718;50.922;5.346;2022-08-06T02:38:31;7.43;;;3.80;;
25913;SDS011;13718;50.922;5.346;2022-08-06T02:41:05;7.93;;;3.47;;
25913;SDS011;13718;50.922;5.346;2022-08-06T02:44:12;9.43;;;4.07;;
25913;SDS011;13718;50.922;5.346;2022-08-06T02:46:40;9.07;;;3.47;;
25913;SDS011;13718;50.922;5.346;2022-08-06T02:49:16;10.02;;;3.90;;
25913;SDS011;13718;50.922;5.346;2022-08-06T02:51:51;8.48;;;3.20;;
25913;SDS011;13718;50.922;5.346;2022-08-06T02:54:22;6.05;;;3.92;;
25913;SDS011;13718;50.922;5.346;2022-08-06T02:56:55;10.00;;;3.90;;
25913;SDS011;13718;50.922;5.346;2022-08-06T02:59:27;9.50;;;3.90;;
25913;SDS011;13718;50.922;5.346;2022-08-06T03:01:56;13.57;;;4.20;;
25913;SDS011;13718;50.922;5.346;2022-08-06T03:04:26;13.98;;;4.45;;
25913;SDS011;13718;50.922;5.346;2022-08-06T03:06:55;12.05;;;3.78;;
25913;SDS011;13718;50.922;5.346;2022-08-06T03:09:23;8.10;;;3.95;;
25913;SDS011;13718;50.922;5.346;2022-08-06T03:11:50;11.43;;;4.15;;
25913;SDS011;13718;50.922;5.346;2022-08-06T03:14:17;11.98;;;3.97;;
25913;SDS011;13718;50.922;5.346;2022-08-06T03:16:45;9.32;;;3.67;;
25913;SDS011;13718;50.922;5.346;2022-08-06T03:19:12;9.48;;;3.97;;
25913;SDS011;13718;50.922;5.346;2022-08-06T03:21:39;10.02;;;3.85;;
25913;SDS011;13718;50.922;5.346;2022-08-06T03:24:06;12.23;;;4.05;;
25913;SDS011;13718;50.922;5.346;2022-08-06T03:26:33;13.20;;;4.65;;
25913;SDS011;13718;50.922;5.346;2022-08-06T03:29:01;11.73;;;4.82;;
25913;SDS011;13718;50.922;5.346;2022-08-06T03:31:27;11.25;;;3.90;;
25913;SDS011;13718;50.922;5.346;2022-08-06T03:33:55;10.23;;;4.50;;
25913;SDS011;13718;50.922;5.346;2022-08-06T03:36:22;10.63;;;3.53;;
25913;SDS011;13718;50.922;5.346;2022-08-06T03:38:50;10.75;;;4.25;;
25913;SDS011;13718;50.922;5.346;2022-08-06T03:41:19;8.77;;;4.20;;
25913;SDS011;13718;50.922;5.346;2022-08-06T03:43:45;8.13;;;4.22;;
25913;SDS011;13718;50.922;5.346;2022-08-06T03:46:11;12.32;;;4.50;;
25913;SDS011;13718;50.922;5.346;2022-08-06T03:48:40;8.68;;;3.95;;
25913;SDS011;13718;50.922;5.346;2022-08-06T03:51:13;8.25;;;4.18;;
25913;SDS011;13718;50.922;5.346;2022-08-06T03:53:42;10.02;;;4.60;;
25913;SDS011;13718;50.922;5.346;2022-08-06T03:56:10;9.40;;;4.40;;
25913;SDS011;13718;50.922;5.346;2022-08-06T03:58:40;11.80;;;4.38;;
25913;SDS011;13718;50.922;5.346;2022-08-06T04:01:10;10.32;;;4.53;;
25913;SDS011;13718;50.922;5.346;2022-08-06T04:03:39;9.10;;;4.40;;
25913;SDS011;13718;50.922;5.346;2022-08-06T04:06:07;9.93;;;4.03;;
25913;SDS011;13718;50.922;5.346;2022-08-06T04:08:38;12.77;;;5.47;;
25913;SDS011;13718;50.922;5.346;2022-08-06T04:11:05;11.82;;;4.80;;
25913;SDS011;13718;50.922;5.346;2022-08-06T04:13:32;13.30;;;4.95;;
25913;SDS011;13718;50.922;5.346;2022-08-06T04:15:59;10.73;;;4.50;;
25913;SDS011;13718;50.922;5.346;2022-08-06T04:18:27;15.25;;;4.90;;
25913;SDS011;13718;50.922;5.346;2022-08-06T04:20:59;9.07;;;4.55;;
25913;SDS011;13718;50.922;5.346;2022-08-06T04:23:27;10.57;;;4.80;;
25913;SDS011;13718;50.922;5.346;2022-08-06T04:25:54;10.25;;;4.70;;
25913;SDS011;13718;50.922;5.346;2022-08-06T04:28:22;9.88;;;4.38;;
25913;SDS011;13718;50.922;5.346;2022-08-06T04:30:49;11.05;;;4.85;;
25913;SDS011;13718;50.922;5.346;2022-08-06T04:33:18;12.80;;;4.70;;
25913;SDS011;13718;50.922;5.346;2022-08-06T04:35:46;8.15;;;4.32;;
25913;SDS011;13718;50.922;5.346;2022-08-06T04:38:13;9.30;;;4.50;;
25913;SDS011;13718;50.922;5.346;2022-08-06T04:40:41;10.75;;;4.25;;
25913;SDS011;13718;50.922;5.346;2022-08-06T04:43:11;11.10;;;4.53;;
25913;SDS011;13718;50.922;5.346;2022-08-06T04:45:38;8.77;;;4.32;;
25913;SDS011;13718;50.922;5.346;2022-08-06T04:48:05;15.05;;;5.03;;
25913;SDS011;13718;50.922;5.346;2022-08-06T04:50:34;13.40;;;5.22;;
25913;SDS011;13718;50.922;5.346;2022-08-06T04:53:07;19.75;;;5.20;;
25913;SDS011;13718;50.922;5.346;2022-08-06T04:55:34;10.32;;;4.88;;
25913;SDS011;13718;50.922;5.346;2022-08-06T04:58:03;12.43;;;4.85;;
25913;SDS011;13718;50.922;5.346;2022-08-06T05:00:30;11.70;;;4.75;;
25913;SDS011;13718;50.922;5.346;2022-08-06T05:02:57;9.32;;;4.35;;
25913;SDS011;13718;50.922;5.346;2022-08-06T05:05:23;8.00;;;4.00;;
25913;SDS011;13718;50.922;5.346;2022-08-06T05:07:50;8.63;;;4.00;;
25913;SDS011;13718;50.922;5.346;2022-08-06T05:10:18;7.80;;;4.53;;
25913;SDS011;13718;50.922;5.346;2022-08-06T05:12:46;10.18;;;4.30;;
25913;SDS011;13718;50.922;5.346;2022-08-06T05:15:19;9.85;;;4.20;;
25913;SDS011;13718;50.922;5.346;2022-08-06T05:17:48;9.95;;;4.30;;
25913;SDS011;13718;50.922;5.346;2022-08-06T05:20:20;6.90;;;4.70;;
25913;SDS011;13718;50.922;5.346;2022-08-06T05:22:47;8.02;;;4.20;;
25913;SDS011;13718;50.922;5.346;2022-08-06T05:25:16;8.38;;;3.72;;
25913;SDS011;13718;50.922;5.346;2022-08-06T05:27:42;9.68;;;4.38;;
25913;SDS011;13718;50.922;5.346;2022-08-06T05:30:08;10.15;;;3.90;;
25913;SDS011;13718;50.922;5.346;2022-08-06T05:32:40;7.57;;;3.70;;
25913;SDS011;13718;50.922;5.346;2022-08-06T05:35:10;8.95;;;4.00;;
25913;SDS011;13718;50.922;5.346;2022-08-06T05:37:36;8.30;;;4.15;;
25913;SDS011;13718;50.922;5.346;2022-08-06T05:40:02;8.48;;;4.07;;
25913;SDS011;13718;50.922;5.346;2022-08-06T05:42:29;9.55;;;3.75;;
25913;SDS011;13718;50.922;5.346;2022-08-06T05:44:55;11.38;;;4.32;;
25913;SDS011;13718;50.922;5.346;2022-08-06T05:47:22;10.30;;;4.72;;
25913;SDS011;13718;50.922;5.346;2022-08-06T05:49:54;8.25;;;4.00;;
25913;SDS011;13718;50.922;5.346;2022-08-06T05:52:23;10.00;;;4.43;;
25913;SDS011;13718;50.922;5.346;2022-08-06T05:55:45;11.52;;;4.40;;
25913;SDS011;13718;50.922;5.346;2022-08-06T05:58:19;16.75;;;4.63;;
25913;SDS011;13718;50.922;5.346;2022-08-06T06:00:53;14.20;;;4.80;;
25913;SDS011;13718;50.922;5.346;2022-08-06T06:03:22;16.80;;;4.72;;
25913;SDS011;13718;50.922;5.346;2022-08-06T06:05:48;10.98;;;4.03;;
25913;SDS011;13718;50.922;5.346;2022-08-06T06:08:15;10.88;;;4.15;;
25913;SDS011;13718;50.922;5.346;2022-08-06T06:10:43;10.43;;;3.97;;
25913;SDS011;13718;50.922;5.346;2022-08-06T06:13:10;12.35;;;3.58;;
25913;SDS011;13718;50.922;5.346;2022-08-06T06:15:38;8.18;;;3.53;;
25913;SDS011;13718;50.922;5.346;2022-08-06T06:23:48;7.32;;;2.03;;
25913;SDS011;13718;50.922;5.346;2022-08-06T06:26:30;6.80;;;1.92;;
25913;SDS011;13718;50.922;5.346;2022-08-06T06:29:14;8.35;;;1.58;;
25913;SDS011;13718;50.922;5.346;2022-08-06T06:32:37;8.05;;;1.92;;
25913;SDS011;13718;50.922;5.346;2022-08-06T06:34:46;8.05;;;2.03;;
25913;SDS011;13718;50.922;5.346;2022-08-06T06:37:40;5.25;;;1.70;;
25913;SDS011;13718;50.922;5.346;2022-08-06T06:42:58;8.48;;;1.33;;
25913;SDS011;13718;50.922;5.346;2022-08-06T06:45:37;8.93;;;1.70;;
25913;SDS011;13718;50.922;5.346;2022-08-06T06:48:19;4.65;;;1.23;;
25913;SDS011;13718;50.922;5.346;2022-08-06T06:50:51;12.27;;;2.38;;
25913;SDS011;13718;50.922;5.346;2022-08-06T06:53:19;6.78;;;2.00;;
25913;SDS011;13718;50.922;5.346;2022-08-06T06:55:46;5.57;;;1.35;;
25913;SDS011;13718;50.922;5.346;2022-08-06T07:00:48;5.50;;;1.02;;
25913;SDS011;13718;50.922;5.346;2022-08-06T07:03:14;3.75;;;1.15;;
25913;SDS011;13718;50.922;5.346;2022-08-06T07:05:44;9.43;;;1.52;;
25913;SDS011;13718;50.922;5.346;2022-08-06T07:08:13;5.68;;;1.27;;
25913;SDS011;13718;50.922;5.346;2022-08-06T07:10:41;6.63;;;1.73;;
25913;SDS011;13718;50.922;5.346;2022-08-06T07:13:09;7.32;;;1.67;;
25913;SDS011;13718;50.922;5.346;2022-08-06T07:15:35;6.05;;;1.55;;
25913;SDS011;13718;50.922;5.346;2022-08-06T07:18:02;5.50;;;1.25;;
25913;SDS011;13718;50.922;5.346;2022-08-06T07:20:29;6.30;;;1.20;;
25913;SDS011;13718;50.922;5.346;2022-08-06T07:22:57;10.52;;;1.10;;
25913;SDS011;13718;50.922;5.346;2022-08-06T07:25:25;6.68;;;1.15;;
25913;SDS011;13718;50.922;5.346;2022-08-06T07:27:52;3.42;;;1.05;;
25913;SDS011;13718;50.922;5.346;2022-08-06T07:30:19;5.85;;;1.15;;
25913;SDS011;13718;50.922;5.346;2022-08-06T07:32:46;5.45;;;1.20;;
25913;SDS011;13718;50.922;5.346;2022-08-06T07:35:13;3.78;;;0.80;;
25913;SDS011;13718;50.922;5.346;2022-08-06T07:37:41;4.90;;;0.93;;
25913;SDS011;13718;50.922;5.346;2022-08-06T07:40:15;4.70;;;0.90;;
25913;SDS011;13718;50.922;5.346;2022-08-06T07:42:45;2.47;;;0.63;;
25913;SDS011;13718;50.922;5.346;2022-08-06T07:45:15;5.25;;;0.82;;
25913;SDS011;13718;50.922;5.346;2022-08-06T07:47:42;3.50;;;0.70;;
25913;SDS011;13718;50.922;5.346;2022-08-06T07:50:11;8.32;;;0.55;;
25913;SDS011;13718;50.922;5.346;2022-08-06T07:52:40;5.28;;;0.80;;
25913;SDS011;13718;50.922;5.346;2022-08-06T07:55:08;4.80;;;0.60;;
25913;SDS011;13718;50.922;5.346;2022-08-06T07:57:37;4.30;;;0.68;;
25913;SDS011;13718;50.922;5.346;2022-08-06T08:00:04;4.28;;;0.63;;
25913;SDS011;13718;50.922;5.346;2022-08-06T08:02:31;2.58;;;0.70;;
25913;SDS011;13718;50.922;5.346;2022-08-06T08:04:57;1.80;;;0.57;;
25913;SDS011;13718;50.922;5.346;2022-08-06T08:07:41;2.65;;;0.60;;
25913;SDS011;13718;50.922;5.346;2022-08-06T08:10:08;3.85;;;0.70;;
25913;SDS011;13718;50.922;5.346;2022-08-06T08:12:34;4.72;;;0.63;;
25913;SDS011;13718;50.922;5.346;2022-08-06T08:15:03;2.63;;;0.60;;
25913;SDS011;13718;50.922;5.346;2022-08-06T08:17:30;4.20;;;0.50;;
25913;SDS011;13718;50.922;5.346;2022-08-06T08:20:00;4.07;;;0.45;;
25913;SDS011;13718;50.922;5.346;2022-08-06T08:22:28;7.07;;;0.75;;
25913;SDS011;13718;50.922;5.346;2022-08-06T08:24:54;4.93;;;0.90;;
25913;SDS011;13718;50.922;5.346;2022-08-06T08:27:19;2.53;;;0.50;;
25913;SDS011;13718;50.922;5.346;2022-08-06T08:29:46;2.50;;;0.30;;
25913;SDS011;13718;50.922;5.346;2022-08-06T08:32:11;1.98;;;0.40;;
25913;SDS011;13718;50.922;5.346;2022-08-06T08:34:37;4.32;;;0.43;;
25913;SDS011;13718;50.922;5.346;2022-08-06T08:37:03;1.85;;;0.38;;
25913;SDS011;13718;50.922;5.346;2022-08-06T08:39:32;2.30;;;0.30;;
25913;SDS011;13718;50.922;5.346;2022-08-06T08:42:00;4.20;;;0.50;;
25913;SDS011;13718;50.922;5.346;2022-08-06T08:44:31;3.35;;;0.40;;
25913;SDS011;13718;50.922;5.346;2022-08-06T08:46:59;1.95;;;0.20;;
25913;SDS011;13718;50.922;5.346;2022-08-06T08:49:27;2.25;;;0.40;;
25913;SDS011;13718;50.922;5.346;2022-08-06T08:51:59;1.75;;;0.30;;
25913;SDS011;13718;50.922;5.346;2022-08-06T08:54:27;1.85;;;0.40;;
25913;SDS011;13718;50.922;5.346;2022-08-06T08:56:56;3.42;;;0.40;;
25913;SDS011;13718;50.922;5.346;2022-08-06T08:59:22;2.08;;;0.35;;
25913;SDS011;13718;50.922;5.346;2022-08-06T09:01:48;4.55;;;0.40;;
25913;SDS011;13718;50.922;5.346;2022-08-06T09:04:14;5.80;;;0.60;;
25913;SDS011;13718;50.922;5.346;2022-08-06T09:06:40;3.05;;;0.40;;
25913;SDS011;13718;50.922;5.346;2022-08-06T09:09:06;2.08;;;0.30;;
25913;SDS011;13718;50.922;5.346;2022-08-06T09:11:33;4.13;;;0.52;;
25913;SDS011;13718;50.922;5.346;2022-08-06T09:14:00;1.95;;;0.30;;
25913;SDS011;13718;50.922;5.346;2022-08-06T09:16:27;3.05;;;0.50;;
25913;SDS011;13718;50.922;5.346;2022-08-06T09:18:54;3.70;;;0.47;;
25913;SDS011;13718;50.922;5.346;2022-08-06T09:21:20;3.35;;;0.57;;
25913;SDS011;13718;50.922;5.346;2022-08-06T09:23:45;2.28;;;0.35;;
25913;SDS011;13718;50.922;5.346;2022-08-06T09:26:11;2.55;;;0.45;;
25913;SDS011;13718;50.922;5.346;2022-08-06T09:28:38;5.63;;;0.57;;
25913;SDS011;13718;50.922;5.346;2022-08-06T09:33:36;3.45;;;0.40;;
25913;SDS011;13718;50.922;5.346;2022-08-06T09:38:46;2.50;;;0.40;;
25913;SDS011;13718;50.922;5.346;2022-08-06T09:41:14;2.25;;;0.57;;
25913;SDS011;13718;50.922;5.346;2022-08-06T09:43:40;1.83;;;0.30;;
25913;SDS011;13718;50.922;5.346;2022-08-06T09:46:08;2.45;;;0.40;;
25913;SDS011;13718;50.922;5.346;2022-08-06T09:48:33;1.00;;;0.40;;
25913;SDS011;13718;50.922;5.346;2022-08-06T09:50:59;2.88;;;0.40;;
25913;SDS011;13718;50.922;5.346;2022-08-06T09:53:25;2.05;;;0.45;;
25913;SDS011;13718;50.922;5.346;2022-08-06T09:55:53;2.42;;;0.38;;
25913;SDS011;13718;50.922;5.346;2022-08-06T09:58:30;6.28;;;0.50;;
25913;SDS011;13718;50.922;5.346;2022-08-06T10:01:19;2.65;;;0.20;;
25913;SDS011;13718;50.922;5.346;2022-08-06T10:03:46;1.42;;;0.25;;
25913;SDS011;13718;50.922;5.346;2022-08-06T10:06:15;1.95;;;0.40;;
25913;SDS011;13718;50.922;5.346;2022-08-06T10:08:48;1.67;;;0.40;;
25913;SDS011;13718;50.922;5.346;2022-08-06T10:11:34;1.33;;;0.30;;
25913;SDS011;13718;50.922;5.346;2022-08-06T10:14:04;1.88;;;0.30;;
25913;SDS011;13718;50.922;5.346;2022-08-06T10:16:30;2.92;;;0.43;;
25913;SDS011;13718;50.922;5.346;2022-08-06T10:18:56;1.52;;;0.38;;
25913;SDS011;13718;50.922;5.346;2022-08-06T10:21:32;3.28;;;0.38;;
25913;SDS011;13718;50.922;5.346;2022-08-06T10:24:00;3.65;;;0.40;;
25913;SDS011;13718;50.922;5.346;2022-08-06T10:26:29;2.20;;;0.32;;
25913;SDS011;13718;50.922;5.346;2022-08-06T10:29:02;1.67;;;0.30;;
25913;SDS011;13718;50.922;5.346;2022-08-06T10:31:30;2.35;;;0.30;;
25913;SDS011;13718;50.922;5.346;2022-08-06T10:33:59;1.60;;;0.30;;
25913;SDS011;13718;50.922;5.346;2022-08-06T10:36:37;1.80;;;0.30;;
25913;SDS011;13718;50.922;5.346;2022-08-06T10:39:04;2.67;;;0.52;;
25913;SDS011;13718;50.922;5.346;2022-08-06T10:41:31;0.85;;;0.20;;
25913;SDS011;13718;50.922;5.346;2022-08-06T10:44:00;2.45;;;0.40;;
25913;SDS011;13718;50.922;5.346;2022-08-06T10:46:27;2.95;;;0.45;;
25913;SDS011;13718;50.922;5.346;2022-08-06T10:48:53;1.55;;;0.10;;
25913;SDS011;13718;50.922;5.346;2022-08-06T10:51:19;2.80;;;0.32;;
25913;SDS011;13718;50.922;5.346;2022-08-06T10:53:46;2.08;;;0.40;;
25913;SDS011;13718;50.922;5.346;2022-08-06T10:56:13;1.63;;;0.47;;
25913;SDS011;13718;50.922;5.346;2022-08-06T10:58:42;2.42;;;0.40;;
25913;SDS011;13718;50.922;5.346;2022-08-06T11:01:09;2.10;;;0.40;;
25913;SDS011;13718;50.922;5.346;2022-08-06T11:04:06;5.05;;;0.38;;
25913;SDS011;13718;50.922;5.346;2022-08-06T11:10:00;2.10;;;0.30;;
25913;SDS011;13718;50.922;5.346;2022-08-06T11:15:42;0.93;;;0.30;;
25913;SDS011;13718;50.922;5.346;2022-08-06T11:18:09;4.72;;;0.30;;
25913;SDS011;13718;50.922;5.346;2022-08-06T11:20:37;1.52;;;0.40;;
25913;SDS011;13718;50.922;5.346;2022-08-06T11:25:43;1.13;;;0.43;;
25913;SDS011;13718;50.922;5.346;2022-08-06T11:28:15;5.25;;;0.52;;
25913;SDS011;13718;50.922;5.346;2022-08-06T11:30:48;3.00;;;0.40;;
25913;SDS011;13718;50.922;5.346;2022-08-06T11:33:17;1.98;;;0.40;;
25913;SDS011;13718;50.922;5.346;2022-08-06T11:35:45;1.90;;;0.28;;
25913;SDS011;13718;50.922;5.346;2022-08-06T11:38:16;3.90;;;0.60;;
25913;SDS011;13718;50.922;5.346;2022-08-06T11:41:20;1.38;;;0.40;;
25913;SDS011;13718;50.922;5.346;2022-08-06T11:46:17;2.33;;;0.45;;
25913;SDS011;13718;50.922;5.346;2022-08-06T12:01:54;1.90;;;0.30;;
25913;SDS011;13718;50.922;5.346;2022-08-06T12:09:47;1.55;;;0.30;;
25913;SDS011;13718;50.922;5.346;2022-08-06T12:20:43;0.45;;;0.20;;
25913;SDS011;13718;50.922;5.346;2022-08-06T12:23:09;3.65;;;0.40;;
25913;SDS011;13718;50.922;5.346;2022-08-06T12:25:37;2.65;;;0.30;;
25913;SDS011;13718;50.922;5.346;2022-08-06T12:28:05;1.38;;;0.30;;
25913;SDS011;13718;50.922;5.346;2022-08-06T12:33:11;1.60;;;0.40;;
25913;SDS011;13718;50.922;5.346;2022-08-06T12:35:59;1.13;;;0.40;;
25913;SDS011;13718;50.922;5.346;2022-08-06T12:38:30;0.65;;;0.20;;
25913;SDS011;13718;50.922;5.346;2022-08-06T12:40:58;2.33;;;0.40;;
25913;SDS011;13718;50.922;5.346;2022-08-06T12:43:26;1.67;;;0.50;;
25913;SDS011;13718;50.922;5.346;2022-08-06T12:46:04;0.98;;;0.20;;
25913;SDS011;13718;50.922;5.346;2022-08-06T12:48:32;2.22;;;0.30;;
25913;SDS011;13718;50.922;5.346;2022-08-06T12:51:07;1.80;;;0.47;;
25913;SDS011;13718;50.922;5.346;2022-08-06T12:53:38;0.55;;;0.20;;
25913;SDS011;13718;50.922;5.346;2022-08-06T12:56:04;0.73;;;0.30;;
25913;SDS011;13718;50.922;5.346;2022-08-06T12:58:30;1.48;;;0.43;;
25913;SDS011;13718;50.922;5.346;2022-08-06T13:01:01;1.60;;;0.40;;
25913;SDS011;13718;50.922;5.346;2022-08-06T13:03:29;3.50;;;0.50;;
25913;SDS011;13718;50.922;5.346;2022-08-06T13:05:58;1.02;;;0.50;;
25913;SDS011;13718;50.922;5.346;2022-08-06T13:08:25;3.03;;;0.60;;
25913;SDS011;13718;50.922;5.346;2022-08-06T13:10:51;1.38;;;0.40;;
25913;SDS011;13718;50.922;5.346;2022-08-06T13:13:18;1.17;;;0.35;;
25913;SDS011;13718;50.922;5.346;2022-08-06T13:16:04;1.85;;;0.47;;
25913;SDS011;13718;50.922;5.346;2022-08-06T13:18:30;1.58;;;0.40;;
25913;SDS011;13718;50.922;5.346;2022-08-06T13:20:56;4.07;;;0.35;;
25913;SDS011;13718;50.922;5.346;2022-08-06T13:23:35;0.93;;;0.32;;
25913;SDS011;13718;50.922;5.346;2022-08-06T13:26:12;1.77;;;0.45;;
25913;SDS011;13718;50.922;5.346;2022-08-06T13:31:43;2.45;;;0.50;;
25913;SDS011;13718;50.922;5.346;2022-08-06T13:34:11;1.08;;;0.50;;
25913;SDS011;13718;50.922;5.346;2022-08-06T13:36:39;3.53;;;0.40;;
25913;SDS011;13718;50.922;5.346;2022-08-06T13:44:44;2.60;;;0.47;;
25913;SDS011;13718;50.922;5.346;2022-08-06T13:47:11;1.63;;;0.40;;
25913;SDS011;13718;50.922;5.346;2022-08-06T13:49:41;1.27;;;0.45;;
25913;SDS011;13718;50.922;5.346;2022-08-06T13:52:08;3.45;;;0.90;;
25913;SDS011;13718;50.922;5.346;2022-08-06T13:54:34;1.60;;;0.43;;
25913;SDS011;13718;50.922;5.346;2022-08-06T13:57:00;0.98;;;0.38;;
25913;SDS011;13718;50.922;5.346;2022-08-06T13:59:27;1.75;;;0.57;;
25913;SDS011;13718;50.922;5.346;2022-08-06T14:01:53;4.28;;;0.50;;
25913;SDS011;13718;50.922;5.346;2022-08-06T14:04:22;3.20;;;0.57;;
25913;SDS011;13718;50.922;5.346;2022-08-06T14:06:49;2.00;;;0.60;;
25913;SDS011;13718;50.922;5.346;2022-08-06T14:09:16;1.63;;;0.47;;
25913;SDS011;13718;50.922;5.346;2022-08-06T14:11:43;1.20;;;0.40;;
25913;SDS011;13718;50.922;5.346;2022-08-06T14:14:09;2.53;;;0.52;;
25913;SDS011;13718;50.922;5.346;2022-08-06T14:16:35;3.22;;;1.08;;
25913;SDS011;13718;50.922;5.346;2022-08-06T14:19:00;1.30;;;0.43;;
25913;SDS011;13718;50.922;5.346;2022-08-06T14:21:26;2.08;;;0.40;;
25913;SDS011;13718;50.922;5.346;2022-08-06T14:23:52;3.55;;;0.52;;
25913;SDS011;13718;50.922;5.346;2022-08-06T14:26:17;4.63;;;1.00;;
25913;SDS011;13718;50.922;5.346;2022-08-06T14:28:43;1.45;;;0.50;;
25913;SDS011;13718;50.922;5.346;2022-08-06T14:31:08;2.13;;;0.60;;
25913;SDS011;13718;50.922;5.346;2022-08-06T14:33:35;2.42;;;0.60;;
25913;SDS011;13718;50.922;5.346;2022-08-06T14:36:02;1.88;;;0.50;;
25913;SDS011;13718;50.922;5.346;2022-08-06T14:38:28;3.35;;;0.70;;
25913;SDS011;13718;50.922;5.346;2022-08-06T14:40:54;1.75;;;0.40;;
25913;SDS011;13718;50.922;5.346;2022-08-06T14:43:38;1.95;;;0.63;;
25913;SDS011;13718;50.922;5.346;2022-08-06T14:46:26;2.92;;;0.85;;
25913;SDS011;13718;50.922;5.346;2022-08-06T14:48:53;1.35;;;0.55;;
25913;SDS011;13718;50.922;5.346;2022-08-06T14:51:19;2.80;;;0.88;;
25913;SDS011;13718;50.922;5.346;2022-08-06T14:53:45;2.50;;;0.52;;
25913;SDS011;13718;50.922;5.346;2022-08-06T14:56:10;2.40;;;0.60;;
25913;SDS011;13718;50.922;5.346;2022-08-06T14:58:36;2.58;;;0.70;;
25913;SDS011;13718;50.922;5.346;2022-08-06T15:01:02;0.90;;;0.60;;
25913;SDS011;13718;50.922;5.346;2022-08-06T15:03:28;5.40;;;0.65;;
25913;SDS011;13718;50.922;5.346;2022-08-06T15:05:53;2.25;;;0.70;;
25913;SDS011;13718;50.922;5.346;2022-08-06T15:08:19;4.03;;;1.10;;
25913;SDS011;13718;50.922;5.346;2022-08-06T15:10:45;1.30;;;0.60;;
25913;SDS011;13718;50.922;5.346;2022-08-06T15:13:10;2.85;;;0.60;;
25913;SDS011;13718;50.922;5.346;2022-08-06T15:15:36;4.18;;;0.45;;
25913;SDS011;13718;50.922;5.346;2022-08-06T15:18:02;2.45;;;0.50;;
25913;SDS011;13718;50.922;5.346;2022-08-06T15:20:28;2.85;;;0.50;;
25913;SDS011;13718;50.922;5.346;2022-08-06T15:22:53;2.35;;;0.50;;
25913;SDS011;13718;50.922;5.346;2022-08-06T15:25:19;1.67;;;0.57;;
25913;SDS011;13718;50.922;5.346;2022-08-06T15:27:45;2.67;;;0.50;;
25913;SDS011;13718;50.922;5.346;2022-08-06T15:30:11;1.70;;;0.60;;
25913;SDS011;13718;50.922;5.346;2022-08-06T15:32:37;2.97;;;0.60;;
25913;SDS011;13718;50.922;5.346;2022-08-06T15:35:03;2.67;;;0.55;;
25913;SDS011;13718;50.922;5.346;2022-08-06T15:37:29;2.33;;;0.70;;
25913;SDS011;13718;50.922;5.346;2022-08-06T15:39:55;2.20;;;0.63;;
25913;SDS011;13718;50.922;5.346;2022-08-06T15:42:22;1.20;;;0.70;;
25913;SDS011;13718;50.922;5.346;2022-08-06T15:44:49;1.65;;;0.70;;
25913;SDS011;13718;50.922;5.346;2022-08-06T15:47:15;3.00;;;0.60;;
25913;SDS011;13718;50.922;5.346;2022-08-06T15:49:41;3.38;;;0.60;;
25913;SDS011;13718;50.922;5.346;2022-08-06T15:52:07;2.03;;;0.80;;
25913;SDS011;13718;50.922;5.346;2022-08-06T15:54:34;1.90;;;0.70;;
25913;SDS011;13718;50.922;5.346;2022-08-06T15:57:00;5.32;;;0.90;;
25913;SDS011;13718;50.922;5.346;2022-08-06T15:59:25;3.97;;;0.88;;
25913;SDS011;13718;50.922;5.346;2022-08-06T16:01:51;2.95;;;0.63;;
25913;SDS011;13718;50.922;5.346;2022-08-06T16:04:17;1.70;;;0.60;;